sensor_id;sensor_type;location;lat;lon;timestamp;temperature;humidity
33109;HTU21D;19481;51.118;6.940;2022-10-30T00:04:01;17.67;55.26
33109;HTU21D;19481;51.118;6.940;2022-10-30T00:09:04;17.66;55.22
33109;HTU21D;19481;51.118;6.940;2022-10-30T00:14:07;17.66;55.23
33109;HTU21D;19481;51.118;6.940;2022-10-30T00:19:08;17.65;55.28
33109;HTU21D;19481;51.118;6.940;2022-10-30T00:24:11;17.65;55.35
33109;HTU21D;19481;51.118;6.940;2022-10-30T00:29:13;17.64;55.37
33109;HTU21D;19481;51.118;6.940;2022-10-30T00:34:15;17.64;55.42
33109;HTU21D;19481;51.118;6.940;2022-10-30T00:39:18;17.52;55.83
33109;HTU21D;19481;51.118;6.940;2022-10-30T00:44:35;17.52;55.76
33109;HTU21D;19481;51.118;6.940;2022-10-30T00:49:43;17.49;55.81
33109;HTU21D;19481;51.118;6.940;2022-10-30T00:54:49;17.59;55.43
33109;HTU21D;19481;51.118;6.940;2022-10-30T00:59:51;17.51;55.65
33109;HTU21D;19481;51.118;6.940;2022-10-30T01:04:53;17.40;56.03
33109;HTU21D;19481;51.118;6.940;2022-10-30T01:09:57;17.34;56.29
33109;HTU21D;19481;51.118;6.940;2022-10-30T01:14:59;17.23;56.64
33109;HTU21D;19481;51.118;6.940;2022-10-30T01:20:15;17.13;56.96
33109;HTU21D;19481;51.118;6.940;2022-10-30T01:25:31;17.07;57.77
33109;HTU21D;19481;51.118;6.940;2022-10-30T01:30:46;17.05;56.95
33109;HTU21D;19481;51.118;6.940;2022-10-30T01:35:57;17.04;56.80
33109;HTU21D;19481;51.118;6.940;2022-10-30T01:41:01;17.01;56.87
33109;HTU21D;19481;51.118;6.940;2022-10-30T01:46:27;16.94;57.37
33109;HTU21D;19481;51.118;6.940;2022-10-30T01:51:43;16.87;57.47
33109;HTU21D;19481;51.118;6.940;2022-10-30T01:56:56;16.82;57.37
33109;HTU21D;19481;51.118;6.940;2022-10-30T02:02:00;16.72;57.60
33109;HTU21D;19481;51.118;6.940;2022-10-30T02:07:02;16.67;57.55
33109;HTU21D;19481;51.118;6.940;2022-10-30T02:12:06;16.52;57.94
33109;HTU21D;19481;51.118;6.940;2022-10-30T02:17:08;16.42;58.22
33109;HTU21D;19481;51.118;6.940;2022-10-30T02:22:12;16.40;58.12
33109;HTU21D;19481;51.118;6.940;2022-10-30T02:27:14;16.33;58.17
33109;HTU21D;19481;51.118;6.940;2022-10-30T02:32:15;16.33;58.12
33109;HTU21D;19481;51.118;6.940;2022-10-30T02:37:18;16.37;57.92
33109;HTU21D;19481;51.118;6.940;2022-10-30T02:42:20;16.30;58.13
33109;HTU21D;19481;51.118;6.940;2022-10-30T02:47:22;16.19;58.42
33109;HTU21D;19481;51.118;6.940;2022-10-30T02:52:25;16.12;58.61
33109;HTU21D;19481;51.118;6.940;2022-10-30T02:57:27;16.04;58.75
33109;HTU21D;19481;51.118;6.940;2022-10-30T03:02:28;16.10;58.57
33109;HTU21D;19481;51.118;6.940;2022-10-30T03:07:31;15.99;58.87
33109;HTU21D;19481;51.118;6.940;2022-10-30T03:12:33;15.92;58.99
33109;HTU21D;19481;51.118;6.940;2022-10-30T03:17:34;15.88;59.03
33109;HTU21D;19481;51.118;6.940;2022-10-30T03:22:38;15.76;59.38
33109;HTU21D;19481;51.118;6.940;2022-10-30T03:27:39;15.68;59.61
33109;HTU21D;19481;51.118;6.940;2022-10-30T03:32:41;15.69;59.48
33109;HTU21D;19481;51.118;6.940;2022-10-30T03:37:44;15.37;60.42
33109;HTU21D;19481;51.118;6.940;2022-10-30T03:42:45;15.16;61.01
33109;HTU21D;19481;51.118;6.940;2022-10-30T03:47:47;14.87;61.83
33109;HTU21D;19481;51.118;6.940;2022-10-30T03:52:52;14.71;62.12
33109;HTU21D;19481;51.118;6.940;2022-10-30T03:57:53;14.62;62.21
33109;HTU21D;19481;51.118;6.940;2022-10-30T04:02:55;14.55;62.24
33109;HTU21D;19481;51.118;6.940;2022-10-30T04:07:59;14.33;62.79
33109;HTU21D;19481;51.118;6.940;2022-10-30T04:13:03;14.27;62.80
33109;HTU21D;19481;51.118;6.940;2022-10-30T04:18:06;14.32;62.44
33109;HTU21D;19481;51.118;6.940;2022-10-30T04:23:12;14.28;62.44
33109;HTU21D;19481;51.118;6.940;2022-10-30T04:28:15;14.13;62.79
33109;HTU21D;19481;51.118;6.940;2022-10-30T04:33:16;13.96;63.26
33109;HTU21D;19481;51.118;6.940;2022-10-30T04:38:19;13.90;63.31
33109;HTU21D;19481;51.118;6.940;2022-10-30T04:43:21;13.92;63.13
33109;HTU21D;19481;51.118;6.940;2022-10-30T04:48:22;13.89;63.15
33109;HTU21D;19481;51.118;6.940;2022-10-30T04:53:25;13.73;63.57
33109;HTU21D;19481;51.118;6.940;2022-10-30T04:58:27;13.65;63.79
33109;HTU21D;19481;51.118;6.940;2022-10-30T05:03:28;13.68;63.63
33109;HTU21D;19481;51.118;6.940;2022-10-30T05:08:32;13.83;63.11
33109;HTU21D;19481;51.118;6.940;2022-10-30T05:13:33;13.92;62.86
33109;HTU21D;19481;51.118;6.940;2022-10-30T05:18:35;13.89;62.91
33109;HTU21D;19481;51.118;6.940;2022-10-30T05:23:38;14.03;62.63
33109;HTU21D;19481;51.118;6.940;2022-10-30T05:28:39;14.00;62.70
33109;HTU21D;19481;51.118;6.940;2022-10-30T05:33:41;14.03;62.72
33109;HTU21D;19481;51.118;6.940;2022-10-30T05:38:45;13.94;62.92
33109;HTU21D;19481;51.118;6.940;2022-10-30T05:43:46;13.95;62.95
33109;HTU21D;19481;51.118;6.940;2022-10-30T05:48:48;14.09;62.55
33109;HTU21D;19481;51.118;6.940;2022-10-30T05:53:51;13.97;62.97
33109;HTU21D;19481;51.118;6.940;2022-10-30T05:58:52;13.82;63.52
33109;HTU21D;19481;51.118;6.940;2022-10-30T06:03:54;13.94;63.18
33109;HTU21D;19481;51.118;6.940;2022-10-30T06:08:57;13.93;63.26
33109;HTU21D;19481;51.118;6.940;2022-10-30T06:13:59;13.76;63.87
33109;HTU21D;19481;51.118;6.940;2022-10-30T06:19:00;13.47;64.76
33109;HTU21D;19481;51.118;6.940;2022-10-30T06:24:05;13.38;64.91
33109;HTU21D;19481;51.118;6.940;2022-10-30T06:29:06;13.19;65.59
33109;HTU21D;19481;51.118;6.940;2022-10-30T06:34:08;13.09;65.77
33109;HTU21D;19481;51.118;6.940;2022-10-30T06:39:11;13.05;65.77
33109;HTU21D;19481;51.118;6.940;2022-10-30T06:44:12;12.99;65.95
33109;HTU21D;19481;51.118;6.940;2022-10-30T06:49:14;12.92;66.33
33109;HTU21D;19481;51.118;6.940;2022-10-30T06:54:17;13.08;65.59
33109;HTU21D;19481;51.118;6.940;2022-10-30T06:59:18;13.20;65.22
33109;HTU21D;19481;51.118;6.940;2022-10-30T07:04:20;13.32;65.01
33109;HTU21D;19481;51.118;6.940;2022-10-30T07:09:23;13.61;64.30
33109;HTU21D;19481;51.118;6.940;2022-10-30T07:14:25;13.75;64.16
33109;HTU21D;19481;51.118;6.940;2022-10-30T07:19:27;14.03;63.73
33109;HTU21D;19481;51.118;6.940;2022-10-30T07:24:30;16.65;56.46
33109;HTU21D;19481;51.118;6.940;2022-10-30T07:29:31;18.37;53.33
33109;HTU21D;19481;51.118;6.940;2022-10-30T07:34:33;19.62;51.88
33109;HTU21D;19481;51.118;6.940;2022-10-30T07:39:37;19.85;53.12
33109;HTU21D;19481;51.118;6.940;2022-10-30T07:44:38;21.18;50.95
33109;HTU21D;19481;51.118;6.940;2022-10-30T07:49:40;20.87;53.30
33109;HTU21D;19481;51.118;6.940;2022-10-30T07:54:43;21.76;50.84
33109;HTU21D;19481;51.118;6.940;2022-10-30T07:59:45;23.13;48.12
33109;HTU21D;19481;51.118;6.940;2022-10-30T08:04:46;24.95;44.31
33109;HTU21D;19481;51.118;6.940;2022-10-30T08:09:49;25.00;44.58
33109;HTU21D;19481;51.118;6.940;2022-10-30T08:14:51;24.69;46.21
33109;HTU21D;19481;51.118;6.940;2022-10-30T08:19:53;22.65;52.25
33109;HTU21D;19481;51.118;6.940;2022-10-30T08:24:57;22.36;52.75
33109;HTU21D;19481;51.118;6.940;2022-10-30T08:30:00;22.41;52.55
33109;HTU21D;19481;51.118;6.940;2022-10-30T08:35:01;22.28;52.71
33109;HTU21D;19481;51.118;6.940;2022-10-30T08:40:07;23.01;49.61
33109;HTU21D;19481;51.118;6.940;2022-10-30T08:45:09;23.27;49.32
33109;HTU21D;19481;51.118;6.940;2022-10-30T08:50:11;22.38;51.32
33109;HTU21D;19481;51.118;6.940;2022-10-30T08:55:14;22.68;48.72
33109;HTU21D;19481;51.118;6.940;2022-10-30T09:00:16;22.61;49.83
33109;HTU21D;19481;51.118;6.940;2022-10-30T09:05:18;23.25;47.72
33109;HTU21D;19481;51.118;6.940;2022-10-30T09:10:21;23.64;46.57
33109;HTU21D;19481;51.118;6.940;2022-10-30T09:15:23;23.44;47.40
33109;HTU21D;19481;51.118;6.940;2022-10-30T09:20:26;24.18;44.93
33109;HTU21D;19481;51.118;6.940;2022-10-30T09:25:29;23.66;46.79
33109;HTU21D;19481;51.118;6.940;2022-10-30T09:30:31;23.52;43.60
33109;HTU21D;19481;51.118;6.940;2022-10-30T09:35:33;23.23;47.14
33109;HTU21D;19481;51.118;6.940;2022-10-30T09:40:47;24.10;43.54
33109;HTU21D;19481;51.118;6.940;2022-10-30T09:46:04;23.83;40.72
33109;HTU21D;19481;51.118;6.940;2022-10-30T09:51:21;24.40;40.93
33109;HTU21D;19481;51.118;6.940;2022-10-30T09:56:31;24.29;41.61
33109;HTU21D;19481;51.118;6.940;2022-10-30T10:01:40;24.51;39.73
33109;HTU21D;19481;51.118;6.940;2022-10-30T10:06:47;24.28;44.31
33109;HTU21D;19481;51.118;6.940;2022-10-30T10:11:55;24.70;41.97
33109;HTU21D;19481;51.118;6.940;2022-10-30T10:17:00;24.17;42.84
33109;HTU21D;19481;51.118;6.940;2022-10-30T10:22:06;24.69;43.01
33109;HTU21D;19481;51.118;6.940;2022-10-30T10:27:24;24.56;38.74
33109;HTU21D;19481;51.118;6.940;2022-10-30T10:32:43;24.38;40.79
33109;HTU21D;19481;51.118;6.940;2022-10-30T10:37:53;24.04;43.37
33109;HTU21D;19481;51.118;6.940;2022-10-30T10:43:05;24.85;39.97
33109;HTU21D;19481;51.118;6.940;2022-10-30T10:48:46;24.65;37.69
33109;HTU21D;19481;51.118;6.940;2022-10-30T10:53:55;24.55;42.79
33109;HTU21D;19481;51.118;6.940;2022-10-30T10:59:00;24.05;41.58
33109;HTU21D;19481;51.118;6.940;2022-10-30T11:04:04;24.36;42.69
33109;HTU21D;19481;51.118;6.940;2022-10-30T11:09:13;24.58;38.40
33109;HTU21D;19481;51.118;6.940;2022-10-30T11:14:20;24.33;42.56
33109;HTU21D;19481;51.118;6.940;2022-10-30T11:19:22;23.84;43.94
33109;HTU21D;19481;51.118;6.940;2022-10-30T11:24:29;23.95;43.35
33109;HTU21D;19481;51.118;6.940;2022-10-30T11:29:32;23.62;44.05
33109;HTU21D;19481;51.118;6.940;2022-10-30T11:34:35;23.95;42.48
33109;HTU21D;19481;51.118;6.940;2022-10-30T11:39:36;24.12;43.10
33109;HTU21D;19481;51.118;6.940;2022-10-30T11:44:41;24.35;41.14
33109;HTU21D;19481;51.118;6.940;2022-10-30T11:49:45;24.33;42.46
33109;HTU21D;19481;51.118;6.940;2022-10-30T11:54:53;24.43;41.74
33109;HTU21D;19481;51.118;6.940;2022-10-30T11:59:57;24.25;43.59
33109;HTU21D;19481;51.118;6.940;2022-10-30T12:05:00;23.88;43.80
33109;HTU21D;19481;51.118;6.940;2022-10-30T12:10:02;23.64;44.99
33109;HTU21D;19481;51.118;6.940;2022-10-30T12:15:16;23.55;41.74
33109;HTU21D;19481;51.118;6.940;2022-10-30T12:20:19;23.41;44.77
33109;HTU21D;19481;51.118;6.940;2022-10-30T12:25:23;23.23;43.96
33109;HTU21D;19481;51.118;6.940;2022-10-30T12:30:27;23.37;44.36
33109;HTU21D;19481;51.118;6.940;2022-10-30T12:35:39;23.50;43.91
33109;HTU21D;19481;51.118;6.940;2022-10-30T12:40:45;23.47;42.99
33109;HTU21D;19481;51.118;6.940;2022-10-30T12:45:54;23.44;42.86
33109;HTU21D;19481;51.118;6.940;2022-10-30T12:51:06;23.46;41.66
33109;HTU21D;19481;51.118;6.940;2022-10-30T12:56:14;23.52;43.99
33109;HTU21D;19481;51.118;6.940;2022-10-30T13:01:22;23.36;44.13
33109;HTU21D;19481;51.118;6.940;2022-10-30T13:06:27;23.44;43.93
33109;HTU21D;19481;51.118;6.940;2022-10-30T13:11:39;23.35;43.78
33109;HTU21D;19481;51.118;6.940;2022-10-30T13:16:46;23.43;43.78
33109;HTU21D;19481;51.118;6.940;2022-10-30T13:21:54;23.40;41.71
33109;HTU21D;19481;51.118;6.940;2022-10-30T13:27:05;23.51;43.40
33109;HTU21D;19481;51.118;6.940;2022-10-30T13:32:25;23.45;42.00
33109;HTU21D;19481;51.118;6.940;2022-10-30T13:37:35;23.42;42.15
33109;HTU21D;19481;51.118;6.940;2022-10-30T13:42:55;23.31;42.79
33109;HTU21D;19481;51.118;6.940;2022-10-30T13:48:06;23.32;42.42
33109;HTU21D;19481;51.118;6.940;2022-10-30T13:53:15;23.43;41.89
33109;HTU21D;19481;51.118;6.940;2022-10-30T13:58:22;23.45;43.31
33109;HTU21D;19481;51.118;6.940;2022-10-30T14:03:42;23.39;41.68
33109;HTU21D;19481;51.118;6.940;2022-10-30T14:08:51;23.26;43.93
33109;HTU21D;19481;51.118;6.940;2022-10-30T14:13:57;23.34;43.91
33109;HTU21D;19481;51.118;6.940;2022-10-30T14:19:05;23.30;43.45
33109;HTU21D;19481;51.118;6.940;2022-10-30T14:24:26;23.52;42.16
33109;HTU21D;19481;51.118;6.940;2022-10-30T14:29:48;23.51;43.38
33109;HTU21D;19481;51.118;6.940;2022-10-30T14:34:57;23.37;41.98
33109;HTU21D;19481;51.118;6.940;2022-10-30T14:40:33;23.54;42.21
33109;HTU21D;19481;51.118;6.940;2022-10-30T14:45:40;23.46;43.39
33109;HTU21D;19481;51.118;6.940;2022-10-30T14:50:56;23.16;43.49
33109;HTU21D;19481;51.118;6.940;2022-10-30T14:56:05;22.95;43.97
33109;HTU21D;19481;51.118;6.940;2022-10-30T15:01:21;22.72;41.71
33109;HTU21D;19481;51.118;6.940;2022-10-30T15:06:31;22.54;44.51
33109;HTU21D;19481;51.118;6.940;2022-10-30T15:16:58;22.24;44.80
33109;HTU21D;19481;51.118;6.940;2022-10-30T15:22:02;22.10;44.66
33109;HTU21D;19481;51.118;6.940;2022-10-30T15:27:04;21.96;44.98
33109;HTU21D;19481;51.118;6.940;2022-10-30T15:32:14;21.84;42.68
33109;HTU21D;19481;51.118;6.940;2022-10-30T15:37:17;21.74;44.96
33109;HTU21D;19481;51.118;6.940;2022-10-30T15:42:20;21.58;45.17
33109;HTU21D;19481;51.118;6.940;2022-10-30T15:47:22;21.44;45.30
33109;HTU21D;19481;51.118;6.940;2022-10-30T15:52:26;21.33;45.41
33109;HTU21D;19481;51.118;6.940;2022-10-30T15:57:32;21.19;45.46
33109;HTU21D;19481;51.118;6.940;2022-10-30T16:02:35;20.98;45.99
33109;HTU21D;19481;51.118;6.940;2022-10-30T16:07:43;20.84;45.90
33109;HTU21D;19481;51.118;6.940;2022-10-30T16:12:46;20.64;46.54
33109;HTU21D;19481;51.118;6.940;2022-10-30T16:17:48;20.46;46.82
33109;HTU21D;19481;51.118;6.940;2022-10-30T16:22:52;20.29;47.15
33109;HTU21D;19481;51.118;6.940;2022-10-30T16:27:53;20.13;47.46
33109;HTU21D;19481;51.118;6.940;2022-10-30T16:32:56;19.98;47.70
33109;HTU21D;19481;51.118;6.940;2022-10-30T16:37:59;19.84;47.91
33109;HTU21D;19481;51.118;6.940;2022-10-30T16:43:03;19.67;48.15
33109;HTU21D;19481;51.118;6.940;2022-10-30T16:48:07;19.58;48.28
33109;HTU21D;19481;51.118;6.940;2022-10-30T16:53:17;19.38;48.82
33109;HTU21D;19481;51.118;6.940;2022-10-30T16:58:21;19.23;49.08
33109;HTU21D;19481;51.118;6.940;2022-10-30T17:03:26;19.07;49.47
33109;HTU21D;19481;51.118;6.940;2022-10-30T17:08:35;18.94;49.98
33109;HTU21D;19481;51.118;6.940;2022-10-30T17:13:55;18.81;50.40
33109;HTU21D;19481;51.118;6.940;2022-10-30T17:18:58;18.73;49.95
33109;HTU21D;19481;51.118;6.940;2022-10-30T17:24:02;18.58;50.27
33109;HTU21D;19481;51.118;6.940;2022-10-30T17:29:04;18.50;50.40
33109;HTU21D;19481;51.118;6.940;2022-10-30T17:34:15;18.41;50.96
33109;HTU21D;19481;51.118;6.940;2022-10-30T17:39:19;18.26;51.02
33109;HTU21D;19481;51.118;6.940;2022-10-30T17:44:22;18.11;51.43
33109;HTU21D;19481;51.118;6.940;2022-10-30T17:49:26;17.82;52.26
33109;HTU21D;19481;51.118;6.940;2022-10-30T17:54:30;17.89;51.94
33109;HTU21D;19481;51.118;6.940;2022-10-30T17:59:31;17.83;51.98
33109;HTU21D;19481;51.118;6.940;2022-10-30T18:04:33;17.72;52.37
33109;HTU21D;19481;51.118;6.940;2022-10-30T18:09:36;17.73;52.30
33109;HTU21D;19481;51.118;6.940;2022-10-30T18:14:37;17.60;52.56
33109;HTU21D;19481;51.118;6.940;2022-10-30T18:19:39;17.54;52.73
33109;HTU21D;19481;51.118;6.940;2022-10-30T18:24:42;17.43;53.01
33109;HTU21D;19481;51.118;6.940;2022-10-30T18:29:44;17.37;53.04
33109;HTU21D;19481;51.118;6.940;2022-10-30T18:34:45;17.20;53.49
33109;HTU21D;19481;51.118;6.940;2022-10-30T18:39:48;17.15;53.62
33109;HTU21D;19481;51.118;6.940;2022-10-30T18:44:50;17.07;53.80
33109;HTU21D;19481;51.118;6.940;2022-10-30T18:49:51;17.02;53.84
33109;HTU21D;19481;51.118;6.940;2022-10-30T18:54:57;17.00;54.31
33109;HTU21D;19481;51.118;6.940;2022-10-30T18:59:58;16.95;53.94
33109;HTU21D;19481;51.118;6.940;2022-10-30T19:05:15;16.96;54.47
33109;HTU21D;19481;51.118;6.940;2022-10-30T19:10:20;16.92;54.05
33109;HTU21D;19481;51.118;6.940;2022-10-30T19:15:24;16.86;54.30
33109;HTU21D;19481;51.118;6.940;2022-10-30T19:20:25;16.89;54.14
33109;HTU21D;19481;51.118;6.940;2022-10-30T19:25:31;16.81;54.51
33109;HTU21D;19481;51.118;6.940;2022-10-30T19:30:33;16.79;54.58
33109;HTU21D;19481;51.118;6.940;2022-10-30T19:35:35;16.76;54.71
33109;HTU21D;19481;51.118;6.940;2022-10-30T19:40:39;16.54;55.39
33109;HTU21D;19481;51.118;6.940;2022-10-30T19:45:41;16.61;55.03
33109;HTU21D;19481;51.118;6.940;2022-10-30T19:50:44;16.48;55.35
33109;HTU21D;19481;51.118;6.940;2022-10-30T19:55:48;16.34;55.83
33109;HTU21D;19481;51.118;6.940;2022-10-30T20:00:49;16.03;56.84
33109;HTU21D;19481;51.118;6.940;2022-10-30T20:05:53;15.88;57.22
33109;HTU21D;19481;51.118;6.940;2022-10-30T20:10:58;15.78;57.42
33109;HTU21D;19481;51.118;6.940;2022-10-30T20:16:01;15.77;57.42
33109;HTU21D;19481;51.118;6.940;2022-10-30T20:21:05;15.61;57.82
33109;HTU21D;19481;51.118;6.940;2022-10-30T20:26:17;15.61;57.91
33109;HTU21D;19481;51.118;6.940;2022-10-30T20:31:20;15.45;58.22
33109;HTU21D;19481;51.118;6.940;2022-10-30T20:36:22;15.31;58.57
33109;HTU21D;19481;51.118;6.940;2022-10-30T20:41:28;15.16;59.00
33109;HTU21D;19481;51.118;6.940;2022-10-30T20:46:29;15.11;58.89
33109;HTU21D;19481;51.118;6.940;2022-10-30T20:51:31;14.97;59.34
33109;HTU21D;19481;51.118;6.940;2022-10-30T20:56:34;14.89;59.40
33109;HTU21D;19481;51.118;6.940;2022-10-30T21:01:35;14.91;59.24
33109;HTU21D;19481;51.118;6.940;2022-10-30T21:06:37;14.71;59.72
33109;HTU21D;19481;51.118;6.940;2022-10-30T21:11:40;14.64;59.90
33109;HTU21D;19481;51.118;6.940;2022-10-30T21:16:42;14.54;60.22
33109;HTU21D;19481;51.118;6.940;2022-10-30T21:21:43;14.59;59.95
33109;HTU21D;19481;51.118;6.940;2022-10-30T21:26:47;14.52;59.93
33109;HTU21D;19481;51.118;6.940;2022-10-30T21:31:48;14.41;60.21
33109;HTU21D;19481;51.118;6.940;2022-10-30T21:36:50;14.38;60.30
33109;HTU21D;19481;51.118;6.940;2022-10-30T21:41:53;14.19;60.80
33109;HTU21D;19481;51.118;6.940;2022-10-30T21:46:55;14.14;60.93
33109;HTU21D;19481;51.118;6.940;2022-10-30T21:51:56;14.04;61.26
33109;HTU21D;19481;51.118;6.940;2022-10-30T21:56:59;13.91;61.68
33109;HTU21D;19481;51.118;6.940;2022-10-30T22:02:01;13.86;61.62
33109;HTU21D;19481;51.118;6.940;2022-10-30T22:07:03;13.77;62.00
33109;HTU21D;19481;51.118;6.940;2022-10-30T22:12:06;13.70;62.06
33109;HTU21D;19481;51.118;6.940;2022-10-30T22:17:07;13.68;62.24
33109;HTU21D;19481;51.118;6.940;2022-10-30T22:22:09;13.67;62.18
33109;HTU21D;19481;51.118;6.940;2022-10-30T22:27:12;13.75;61.93
33109;HTU21D;19481;51.118;6.940;2022-10-30T22:32:14;13.75;61.94
33109;HTU21D;19481;51.118;6.940;2022-10-30T22:37:16;13.71;62.24
33109;HTU21D;19481;51.118;6.940;2022-10-30T22:42:19;13.69;62.34
33109;HTU21D;19481;51.118;6.940;2022-10-30T22:47:20;13.64;62.63
33109;HTU21D;19481;51.118;6.940;2022-10-30T22:52:22;13.65;62.50
33109;HTU21D;19481;51.118;6.940;2022-10-30T22:57:25;13.54;62.79
33109;HTU21D;19481;51.118;6.940;2022-10-30T23:02:27;13.49;63.10
33109;HTU21D;19481;51.118;6.940;2022-10-30T23:07:29;13.38;63.28
33109;HTU21D;19481;51.118;6.940;2022-10-30T23:12:32;13.33;63.51
33109;HTU21D;19481;51.118;6.940;2022-10-30T23:17:34;13.30;63.50
33109;HTU21D;19481;51.118;6.940;2022-10-30T23:22:35;13.24;63.66
33109;HTU21D;19481;51.118;6.940;2022-10-30T23:27:38;13.23;63.59
33109;HTU21D;19481;51.118;6.940;2022-10-30T23:32:40;13.29;63.39
33109;HTU21D;19481;51.118;6.940;2022-10-30T23:37:42;13.31;63.47
33109;HTU21D;19481;51.118;6.940;2022-10-30T23:42:45;13.35;63.50
33109;HTU21D;19481;51.118;6.940;2022-10-30T23:47:47;13.30;63.87
33109;HTU21D;19481;51.118;6.940;2022-10-30T23:52:48;13.31;63.85
33109;HTU21D;19481;51.118;6.940;2022-10-30T23:57:51;13.22;64.05
